首页
METAR-TAF:

METAR-TAF

机场 :

Butler, 宾夕法尼亚州, 美国

纬度: 40-47N, 经度: 079-57W, 海拔: 380米

当前天气观测

该预报发布于58分钟前的08:56 UTC
静风
温度 18°C
湿度 100%
气压 1016 hPa
能見度: 14.5公里
天空无云

METAR: KBTP 180856Z AUTO 00000KT 9SM CLR 18/18 A3001 RMK AO2 SLP158 T01830178 55005

时间: 05:54 (09:54 UTC)


TAF: 丢失

超过4000个机场的气象观测和天气预报(METAR&TAF报告)。

可查询的气象台以黄色和红色小点在地图上表示。

将鼠标移到小点上方,可查看气象台名称。

然后点击查看天气观测和预报。

如需切换地图:点击带黑十字的绿色按钮放大地图;点击带横线的绿色按钮缩小地图;或者点击绿色箭头查看邻近地区的地图。


METAR-TAF: